sensor_id;sensor_type;location;lat;lon;timestamp;P1;durP1;ratioP1;P2;durP2;ratioP2
39324;SDS011;25037;49.488;9.900;2023-08-20T00:04:49;9.63;;;4.80;;
39324;SDS011;25037;49.488;9.900;2023-08-20T00:11:04;10.30;;;4.38;;
39324;SDS011;25037;49.488;9.900;2023-08-20T00:17:12;9.80;;;4.97;;
39324;SDS011;25037;49.488;9.900;2023-08-20T00:27:14;9.27;;;5.53;;
39324;SDS011;25037;49.488;9.900;2023-08-20T00:36:51;9.25;;;5.03;;
39324;SDS011;25037;49.488;9.900;2023-08-20T00:43:05;8.60;;;5.65;;
39324;SDS011;25037;49.488;9.900;2023-08-20T00:49:20;8.55;;;5.38;;
39324;SDS011;25037;49.488;9.900;2023-08-20T00:51:46;10.68;;;6.00;;
39324;SDS011;25037;49.488;9.900;2023-08-20T00:58:01;9.20;;;5.88;;
39324;SDS011;25037;49.488;9.900;2023-08-20T01:04:09;11.35;;;6.38;;
39324;SDS011;25037;49.488;9.900;2023-08-20T01:13:21;9.43;;;5.05;;
39324;SDS011;25037;49.488;9.900;2023-08-20T01:19:35;12.27;;;5.47;;
39324;SDS011;25037;49.488;9.900;2023-08-20T01:33:23;11.70;;;5.68;;
39324;SDS011;25037;49.488;9.900;2023-08-20T01:39:40;14.70;;;5.70;;
39324;SDS011;25037;49.488;9.900;2023-08-20T01:45:47;8.95;;;5.75;;
39324;SDS011;25037;49.488;9.900;2023-08-20T01:54:40;8.82;;;5.78;;
39324;SDS011;25037;49.488;9.900;2023-08-20T02:00:54;10.27;;;5.95;;
39324;SDS011;25037;49.488;9.900;2023-08-20T02:07:08;12.35;;;6.22;;
39324;SDS011;25037;49.488;9.900;2023-08-20T02:09:34;11.32;;;6.60;;
39324;SDS011;25037;49.488;9.900;2023-08-20T02:12:01;11.68;;;6.32;;
39324;SDS011;25037;49.488;9.900;2023-08-20T02:19:17;9.40;;;6.05;;
39324;SDS011;25037;49.488;9.900;2023-08-20T02:21:43;10.50;;;5.60;;
39324;SDS011;25037;49.488;9.900;2023-08-20T02:31:46;8.48;;;6.07;;
39324;SDS011;25037;49.488;9.900;2023-08-20T02:44:50;11.38;;;6.20;;
39324;SDS011;25037;49.488;9.900;2023-08-20T02:51:04;9.20;;;6.22;;
39324;SDS011;25037;49.488;9.900;2023-08-20T02:57:19;10.57;;;6.10;;
39324;SDS011;25037;49.488;9.900;2023-08-20T03:03:32;9.75;;;5.95;;
39324;SDS011;25037;49.488;9.900;2023-08-20T03:16:58;9.88;;;6.00;;
39324;SDS011;25037;49.488;9.900;2023-08-20T03:23:05;12.25;;;5.80;;
39324;SDS011;25037;49.488;9.900;2023-08-20T03:29:19;11.55;;;6.55;;
39324;SDS011;25037;49.488;9.900;2023-08-20T03:35:34;10.52;;;6.72;;
39324;SDS011;25037;49.488;9.900;2023-08-20T03:41:41;10.20;;;6.28;;
39324;SDS011;25037;49.488;9.900;2023-08-20T03:47:54;10.23;;;6.63;;
39324;SDS011;25037;49.488;9.900;2023-08-20T03:54:08;12.05;;;7.25;;
39324;SDS011;25037;49.488;9.900;2023-08-20T04:00:16;11.63;;;7.25;;
39324;SDS011;25037;49.488;9.900;2023-08-20T04:06:29;10.15;;;6.80;;
39324;SDS011;25037;49.488;9.900;2023-08-20T04:12:44;13.00;;;7.93;;
39324;SDS011;25037;49.488;9.900;2023-08-20T04:21:42;11.02;;;7.28;;
39324;SDS011;25037;49.488;9.900;2023-08-20T04:27:50;9.90;;;7.10;;
39324;SDS011;25037;49.488;9.900;2023-08-20T04:36:57;11.52;;;6.07;;
39324;SDS011;25037;49.488;9.900;2023-08-20T04:46:39;11.68;;;6.55;;
39324;SDS011;25037;49.488;9.900;2023-08-20T04:52:53;11.15;;;7.22;;
39324;SDS011;25037;49.488;9.900;2023-08-20T04:59:08;11.57;;;7.20;;
39324;SDS011;25037;49.488;9.900;2023-08-20T05:05:15;10.50;;;7.15;;
39324;SDS011;25037;49.488;9.900;2023-08-20T05:14:46;12.38;;;7.30;;
39324;SDS011;25037;49.488;9.900;2023-08-20T05:21:00;10.38;;;6.75;;
39324;SDS011;25037;49.488;9.900;2023-08-20T05:29:59;10.80;;;7.40;;
39324;SDS011;25037;49.488;9.900;2023-08-20T05:40:01;9.90;;;6.80;;
39324;SDS011;25037;49.488;9.900;2023-08-20T05:46:16;13.57;;;7.30;;
39324;SDS011;25037;49.488;9.900;2023-08-20T05:52:30;15.40;;;7.78;;
39324;SDS011;25037;49.488;9.900;2023-08-20T05:58:44;12.70;;;7.72;;
39324;SDS011;25037;49.488;9.900;2023-08-20T06:04:58;11.70;;;7.40;;
39324;SDS011;25037;49.488;9.900;2023-08-20T06:11:12;15.48;;;7.45;;
39324;SDS011;25037;49.488;9.900;2023-08-20T06:17:25;10.48;;;7.53;;
39324;SDS011;25037;49.488;9.900;2023-08-20T06:23:40;12.73;;;7.72;;
39324;SDS011;25037;49.488;9.900;2023-08-20T06:33:43;10.10;;;7.53;;
39324;SDS011;25037;49.488;9.900;2023-08-20T06:44:46;10.50;;;7.78;;
39324;SDS011;25037;49.488;9.900;2023-08-20T06:51:07;11.23;;;8.77;;
39324;SDS011;25037;49.488;9.900;2023-08-20T07:07:41;10.55;;;8.32;;
39324;SDS011;25037;49.488;9.900;2023-08-20T07:13:55;10.52;;;7.78;;
39324;SDS011;25037;49.488;9.900;2023-08-20T07:20:08;11.38;;;8.45;;
39324;SDS011;25037;49.488;9.900;2023-08-20T07:30:35;12.00;;;8.38;;
39324;SDS011;25037;49.488;9.900;2023-08-20T07:58:52;9.18;;;7.22;;
39324;SDS011;25037;49.488;9.900;2023-08-20T08:05:05;12.60;;;8.02;;
39324;SDS011;25037;49.488;9.900;2023-08-20T08:11:19;13.80;;;8.05;;
39324;SDS011;25037;49.488;9.900;2023-08-20T08:17:33;10.90;;;7.40;;
39324;SDS011;25037;49.488;9.900;2023-08-20T08:31:23;8.43;;;7.38;;
39324;SDS011;25037;49.488;9.900;2023-08-20T08:37:37;10.35;;;7.82;;
39324;SDS011;25037;49.488;9.900;2023-08-20T08:43:50;8.45;;;7.32;;
39324;SDS011;25037;49.488;9.900;2023-08-20T09:04:12;13.18;;;7.28;;
39324;SDS011;25037;49.488;9.900;2023-08-20T09:17:11;10.13;;;7.97;;
39324;SDS011;25037;49.488;9.900;2023-08-20T09:26:29;9.70;;;7.28;;
39324;SDS011;25037;49.488;9.900;2023-08-20T09:32:43;10.05;;;7.28;;
39324;SDS011;25037;49.488;9.900;2023-08-20T09:38:57;8.93;;;8.02;;
39324;SDS011;25037;49.488;9.900;2023-08-20T09:45:05;9.35;;;8.02;;
39324;SDS011;25037;49.488;9.900;2023-08-20T09:51:24;10.98;;;8.30;;
39324;SDS011;25037;49.488;9.900;2023-08-20T09:57:40;12.50;;;8.88;;
39324;SDS011;25037;49.488;9.900;2023-08-20T10:03:53;9.32;;;8.25;;
39324;SDS011;25037;49.488;9.900;2023-08-20T10:13:23;10.85;;;7.10;;
39324;SDS011;25037;49.488;9.900;2023-08-20T10:15:50;9.95;;;8.07;;
39324;SDS011;25037;49.488;9.900;2023-08-20T10:22:05;9.90;;;7.35;;
39324;SDS011;25037;49.488;9.900;2023-08-20T10:28:27;9.52;;;6.90;;
39324;SDS011;25037;49.488;9.900;2023-08-20T10:33:59;8.95;;;7.38;;
39324;SDS011;25037;49.488;9.900;2023-08-20T10:44:00;8.43;;;7.35;;
39324;SDS011;25037;49.488;9.900;2023-08-20T10:50:17;8.40;;;6.70;;
39324;SDS011;25037;49.488;9.900;2023-08-20T11:17:13;10.20;;;7.60;;
39324;SDS011;25037;49.488;9.900;2023-08-20T11:23:21;10.55;;;7.80;;
39324;SDS011;25037;49.488;9.900;2023-08-20T11:29:35;7.68;;;6.75;;
39324;SDS011;25037;49.488;9.900;2023-08-20T11:35:49;9.00;;;7.55;;
39324;SDS011;25037;49.488;9.900;2023-08-20T11:41:58;9.38;;;6.53;;
39324;SDS011;25037;49.488;9.900;2023-08-20T11:48:13;10.45;;;7.18;;
39324;SDS011;25037;49.488;9.900;2023-08-20T11:57:32;9.50;;;6.28;;
39324;SDS011;25037;49.488;9.900;2023-08-20T12:12:48;7.18;;;6.30;;
39324;SDS011;25037;49.488;9.900;2023-08-20T12:19:02;7.30;;;6.25;;
39324;SDS011;25037;49.488;9.900;2023-08-20T12:25:17;9.25;;;7.15;;
39324;SDS011;25037;49.488;9.900;2023-08-20T12:31:32;10.23;;;7.32;;
39324;SDS011;25037;49.488;9.900;2023-08-20T12:37:46;10.48;;;7.63;;
39324;SDS011;25037;49.488;9.900;2023-08-20T12:43:59;10.48;;;7.68;;
39324;SDS011;25037;49.488;9.900;2023-08-20T12:50:13;9.10;;;7.32;;
39324;SDS011;25037;49.488;9.900;2023-08-20T12:55:26;8.13;;;6.82;;
39324;SDS011;25037;49.488;9.900;2023-08-20T13:01:34;10.82;;;7.60;;
39324;SDS011;25037;49.488;9.900;2023-08-20T13:10:50;10.70;;;7.78;;
39324;SDS011;25037;49.488;9.900;2023-08-20T13:17:07;10.27;;;8.38;;
39324;SDS011;25037;49.488;9.900;2023-08-20T13:26:25;10.18;;;6.80;;
39324;SDS011;25037;49.488;9.900;2023-08-20T13:32:39;10.93;;;7.30;;
39324;SDS011;25037;49.488;9.900;2023-08-20T13:38:47;10.35;;;6.18;;
39324;SDS011;25037;49.488;9.900;2023-08-20T13:43:59;9.50;;;6.60;;
39324;SDS011;25037;49.488;9.900;2023-08-20T13:50:12;8.30;;;6.53;;
39324;SDS011;25037;49.488;9.900;2023-08-20T13:52:39;8.07;;;6.95;;
39324;SDS011;25037;49.488;9.900;2023-08-20T13:58:53;8.40;;;6.72;;
39324;SDS011;25037;49.488;9.900;2023-08-20T14:19:08;8.90;;;6.72;;
39324;SDS011;25037;49.488;9.900;2023-08-20T14:25:16;12.05;;;6.63;;
39324;SDS011;25037;49.488;9.900;2023-08-20T14:34:15;9.35;;;6.10;;
39324;SDS011;25037;49.488;9.900;2023-08-20T14:36:42;9.45;;;6.40;;
39324;SDS011;25037;49.488;9.900;2023-08-20T14:42:56;8.38;;;6.63;;
39324;SDS011;25037;49.488;9.900;2023-08-20T14:49:03;7.68;;;5.90;;
39324;SDS011;25037;49.488;9.900;2023-08-20T14:55:18;11.18;;;6.13;;
39324;SDS011;25037;49.488;9.900;2023-08-20T15:01:32;8.07;;;5.28;;
39324;SDS011;25037;49.488;9.900;2023-08-20T15:14:50;8.48;;;5.70;;
39324;SDS011;25037;49.488;9.900;2023-08-20T15:21:04;9.88;;;6.15;;
39324;SDS011;25037;49.488;9.900;2023-08-20T15:27:18;8.93;;;6.03;;
39324;SDS011;25037;49.488;9.900;2023-08-20T15:41:07;8.32;;;5.13;;
39324;SDS011;25037;49.488;9.900;2023-08-20T15:47:21;8.98;;;6.07;;
39324;SDS011;25037;49.488;9.900;2023-08-20T15:56:41;8.98;;;6.63;;
39324;SDS011;25037;49.488;9.900;2023-08-20T16:02:54;7.47;;;6.68;;
39324;SDS011;25037;49.488;9.900;2023-08-20T16:19:46;9.18;;;6.80;;
39324;SDS011;25037;49.488;9.900;2023-08-20T16:26:00;10.18;;;6.40;;
39324;SDS011;25037;49.488;9.900;2023-08-20T16:32:14;8.80;;;5.85;;
39324;SDS011;25037;49.488;9.900;2023-08-20T16:38:29;10.65;;;6.47;;
39324;SDS011;25037;49.488;9.900;2023-08-20T16:44:43;9.77;;;5.95;;
39324;SDS011;25037;49.488;9.900;2023-08-20T16:51:00;12.10;;;5.93;;
39324;SDS011;25037;49.488;9.900;2023-08-20T16:57:14;9.05;;;5.00;;
39324;SDS011;25037;49.488;9.900;2023-08-20T17:13:49;19.13;;;6.43;;
39324;SDS011;25037;49.488;9.900;2023-08-20T17:20:03;12.15;;;6.03;;
39324;SDS011;25037;49.488;9.900;2023-08-20T17:26:19;8.98;;;5.50;;
39324;SDS011;25037;49.488;9.900;2023-08-20T17:43:05;6.85;;;6.13;;
39324;SDS011;25037;49.488;9.900;2023-08-20T17:49:19;9.57;;;5.53;;
39324;SDS011;25037;49.488;9.900;2023-08-20T17:55:27;9.00;;;5.22;;
39324;SDS011;25037;49.488;9.900;2023-08-20T18:01:47;8.85;;;5.68;;
39324;SDS011;25037;49.488;9.900;2023-08-20T18:08:01;10.10;;;5.45;;
39324;SDS011;25037;49.488;9.900;2023-08-20T18:14:09;7.20;;;5.55;;
39324;SDS011;25037;49.488;9.900;2023-08-20T18:20:22;8.68;;;5.20;;
39324;SDS011;25037;49.488;9.900;2023-08-20T18:26:36;8.77;;;5.78;;
39324;SDS011;25037;49.488;9.900;2023-08-20T18:32:44;13.38;;;6.35;;
39324;SDS011;25037;49.488;9.900;2023-08-20T18:38:57;9.88;;;5.95;;
39324;SDS011;25037;49.488;9.900;2023-08-20T19:02:19;8.93;;;5.65;;
39324;SDS011;25037;49.488;9.900;2023-08-20T19:11:20;8.07;;;5.80;;
39324;SDS011;25037;49.488;9.900;2023-08-20T19:17:34;7.68;;;6.28;;
39324;SDS011;25037;49.488;9.900;2023-08-20T19:27:29;11.30;;;6.07;;
39324;SDS011;25037;49.488;9.900;2023-08-20T19:33:44;9.32;;;5.50;;
39324;SDS011;25037;49.488;9.900;2023-08-20T19:43:45;7.78;;;5.65;;
39324;SDS011;25037;49.488;9.900;2023-08-20T19:49:59;10.70;;;5.80;;
39324;SDS011;25037;49.488;9.900;2023-08-20T19:56:06;9.70;;;5.38;;
39324;SDS011;25037;49.488;9.900;2023-08-20T20:02:20;9.40;;;5.82;;
39324;SDS011;25037;49.488;9.900;2023-08-20T20:12:21;8.23;;;5.40;;
39324;SDS011;25037;49.488;9.900;2023-08-20T20:18:35;8.75;;;5.75;;
39324;SDS011;25037;49.488;9.900;2023-08-20T20:21:03;12.15;;;6.57;;
39324;SDS011;25037;49.488;9.900;2023-08-20T20:27:17;11.10;;;6.28;;
39324;SDS011;25037;49.488;9.900;2023-08-20T20:33:25;13.07;;;5.80;;
39324;SDS011;25037;49.488;9.900;2023-08-20T20:35:54;9.90;;;5.93;;
39324;SDS011;25037;49.488;9.900;2023-08-20T20:42:08;7.75;;;5.03;;
39324;SDS011;25037;49.488;9.900;2023-08-20T20:52:08;10.80;;;5.30;;
39324;SDS011;25037;49.488;9.900;2023-08-20T20:58:22;12.20;;;5.70;;
39324;SDS011;25037;49.488;9.900;2023-08-20T21:04:36;8.75;;;5.40;;
39324;SDS011;25037;49.488;9.900;2023-08-20T21:10:44;7.88;;;4.90;;
39324;SDS011;25037;49.488;9.900;2023-08-20T21:16:58;8.98;;;5.45;;
39324;SDS011;25037;49.488;9.900;2023-08-20T21:23:12;9.30;;;6.13;;
39324;SDS011;25037;49.488;9.900;2023-08-20T21:33:06;7.32;;;5.30;;
39324;SDS011;25037;49.488;9.900;2023-08-20T21:42:06;10.07;;;5.88;;
39324;SDS011;25037;49.488;9.900;2023-08-20T21:55:12;7.75;;;5.45;;
39324;SDS011;25037;49.488;9.900;2023-08-20T22:01:26;9.10;;;5.82;;
39324;SDS011;25037;49.488;9.900;2023-08-20T22:07:41;8.90;;;5.47;;
39324;SDS011;25037;49.488;9.900;2023-08-20T22:17:44;10.30;;;5.60;;
39324;SDS011;25037;49.488;9.900;2023-08-20T22:23:58;11.45;;;5.75;;
39324;SDS011;25037;49.488;9.900;2023-08-20T22:26:25;7.60;;;5.28;;
39324;SDS011;25037;49.488;9.900;2023-08-20T22:32:40;8.52;;;4.95;;
39324;SDS011;25037;49.488;9.900;2023-08-20T22:35:07;9.13;;;5.47;;
39324;SDS011;25037;49.488;9.900;2023-08-20T22:44:18;9.85;;;5.50;;
39324;SDS011;25037;49.488;9.900;2023-08-20T22:50:32;9.48;;;5.72;;
39324;SDS011;25037;49.488;9.900;2023-08-20T22:56:46;8.60;;;5.07;;
39324;SDS011;25037;49.488;9.900;2023-08-20T23:23:53;8.52;;;5.13;;
39324;SDS011;25037;49.488;9.900;2023-08-20T23:40:03;8.23;;;5.35;;
39324;SDS011;25037;49.488;9.900;2023-08-20T23:46:41;9.25;;;5.63;;
39324;SDS011;25037;49.488;9.900;2023-08-20T23:53:01;13.02;;;6.00;;
